Time;durP1;ratioP1;P1;durP2;ratioP2;P2;SDS_P1;SDS_P2;PMS_P1;PMS_P2;Temp;Humidity;BMP_temperature;BMP_pressure;BME280_temperature;BME280_humidity;BME280_pressure;Samples;Min_cycle;Max_cycle;Signal;HPM_P1;HPM_P2
2022/10/18 00:01:48;;;;;;;7.95;3.50;;;19.20;99.90;;;;;;5114754;28;20043;-81
2022/10/18 00:04:13;;;;;;;4.93;3.17;;;19.20;99.90;;;;;;5099377;28;20082;-81
2022/10/18 00:06:39;;;;;;;5.93;3.10;;;19.10;99.90;;;;;;5094787;28;20042;-81
2022/10/18 00:09:05;;;;;;;3.58;2.78;;;19.00;99.90;;;;;;5094347;28;20127;-81
2022/10/18 00:11:30;;;;;;;5.28;3.00;;;19.00;99.90;;;;;;5094851;28;20036;-81
2022/10/18 00:13:56;;;;;;;5.15;3.40;;;19.00;99.90;;;;;;5076714;28;20027;-81
2022/10/18 00:16:22;;;;;;;5.53;3.17;;;19.00;99.90;;;;;;5094436;28;20032;-81
2022/10/18 00:18:48;;;;;;;4.95;2.90;;;18.90;99.90;;;;;;5095019;28;20027;-81
2022/10/18 00:21:19;;;;;;;5.40;3.35;;;18.80;99.90;;;;;;5094462;28;20067;-81
2022/10/18 00:23:46;;;;;;;4.75;3.38;;;18.90;99.90;;;;;;5094518;28;20028;-80
2022/10/18 00:26:18;;;;;;;4.22;3.50;;;18.80;99.90;;;;;;5094502;28;20031;-81
2022/10/18 00:28:48;;;;;;;4.30;3.30;;;18.90;99.90;;;;;;5094072;28;20020;-81
2022/10/18 00:31:20;;;;;;;5.65;3.30;;;18.90;99.90;;;;;;5100705;28;20051;-81
2022/10/18 00:33:48;;;;;;;4.95;3.33;;;18.90;99.90;;;;;;5114606;28;20576;-81
2022/10/18 00:36:14;;;;;;;7.20;3.65;;;18.90;99.90;;;;;;5114737;28;20472;-80
2022/10/18 00:38:41;;;;;;;5.53;3.33;;;18.90;99.90;;;;;;5114672;28;20107;-80
2022/10/18 00:41:09;;;;;;;5.63;3.30;;;18.80;99.90;;;;;;5114909;28;20020;-81
2022/10/18 00:44:02;;;;;;;4.55;3.47;;;18.80;99.90;;;;;;5114309;28;20028;-80
2022/10/18 00:46:33;;;;;;;7.05;4.13;;;18.80;99.90;;;;;;5114539;28;20108;-81
2022/10/18 00:49:06;;;;;;;4.97;3.60;;;18.80;99.90;;;;;;5114198;28;20437;-81
2022/10/18 00:51:38;;;;;;;7.60;3.78;;;18.80;99.90;;;;;;5114222;28;20039;-80
2022/10/18 00:54:04;;;;;;;5.97;3.38;;;18.80;99.90;;;;;;5114322;28;20051;-81
2022/10/18 00:56:31;;;;;;;7.65;4.10;;;18.70;99.90;;;;;;5114665;28;20024;-81
2022/10/18 00:58:57;;;;;;;4.32;3.35;;;18.50;99.90;;;;;;5113938;28;20055;-81
2022/10/18 01:01:22;;;;;;;7.40;3.60;;;18.60;99.90;;;;;;5114043;28;20058;-80
2022/10/18 01:03:49;;;;;;;7.20;3.55;;;18.60;99.90;;;;;;5101859;28;20034;-81
2022/10/18 01:06:15;;;;;;;5.50;3.58;;;18.60;99.90;;;;;;5093415;28;20048;-81
2022/10/18 01:09:04;;;;;;;5.97;3.63;;;18.70;99.90;;;;;;5094074;28;20071;-80
2022/10/18 01:11:57;;;;;;;8.15;3.45;;;18.60;99.90;;;;;;5093288;28;20051;-80
2022/10/18 01:14:31;;;;;;;3.88;3.50;;;18.50;99.90;;;;;;5092640;28;20054;-81
2022/10/18 01:17:07;;;;;;;5.60;3.70;;;18.60;99.90;;;;;;5093424;28;20024;-81
2022/10/18 01:20:11;;;;;;;6.13;3.45;;;18.60;99.90;;;;;;5093353;28;20365;-81
2022/10/18 01:22:46;;;;;;;6.55;3.50;;;18.50;99.90;;;;;;5091767;28;20066;-81
2022/10/18 01:25:24;;;;;;;4.50;3.40;;;18.40;99.90;;;;;;5093144;28;20396;-81
2022/10/18 01:27:58;;;;;;;5.65;3.70;;;18.30;99.90;;;;;;5092987;28;20063;-81
2022/10/18 01:30:35;;;;;;;5.95;4.03;;;18.30;99.90;;;;;;5093803;28;20020;-81
2022/10/18 01:33:15;;;;;;;5.47;3.90;;;18.40;99.90;;;;;;5093095;28;20028;-81
2022/10/18 01:35:52;;;;;;;6.88;4.10;;;18.50;99.90;;;;;;5093007;28;20024;-80
2022/10/18 01:38:19;;;;;;;6.88;3.88;;;18.30;99.90;;;;;;5093032;28;20100;-81
2022/10/18 01:40:48;;;;;;;4.93;4.00;;;18.30;99.90;;;;;;5093407;28;20040;-81
2022/10/18 01:43:16;;;;;;;7.55;4.30;;;18.20;99.90;;;;;;5092233;28;20023;-81
2022/10/18 01:45:42;;;;;;;5.68;4.22;;;18.00;99.90;;;;;;5092967;28;20035;-81
2022/10/18 01:48:10;;;;;;;6.28;3.78;;;18.00;99.90;;;;;;5093158;28;20059;-81
2022/10/18 01:50:36;;;;;;;7.78;4.30;;;18.10;99.90;;;;;;5092887;28;20024;-81
2022/10/18 01:53:02;;;;;;;7.75;3.95;;;18.10;99.90;;;;;;5092684;28;20366;-81
2022/10/18 01:55:47;;;;;;;6.47;4.25;;;18.00;99.90;;;;;;5092792;28;20074;-81
2022/10/18 01:58:21;;;;;;;5.22;3.70;;;18.00;99.90;;;;;;5092950;28;20441;-81
2022/10/18 02:00:53;;;;;;;5.93;3.90;;;17.90;99.90;;;;;;5093183;28;20084;-80
2022/10/18 02:03:24;;;;;;;7.22;4.50;;;18.00;99.90;;;;;;5091967;28;20021;-81
2022/10/18 02:06:09;;;;;;;6.55;4.20;;;18.00;99.90;;;;;;5092642;28;20409;-81
2022/10/18 02:08:50;;;;;;;6.85;4.20;;;17.90;99.90;;;;;;5092707;28;20396;-81
2022/10/18 02:11:17;;;;;;;7.35;4.13;;;17.90;99.90;;;;;;5091922;28;20086;-80
2022/10/18 02:13:45;;;;;;;4.50;3.88;;;17.90;99.90;;;;;;5092845;28;20036;-81
2022/10/18 02:16:15;;;;;;;6.90;4.25;;;18.00;99.90;;;;;;5092442;28;20020;-80
2022/10/18 02:19:04;;;;;;;8.50;4.22;;;18.00;99.90;;;;;;5092909;28;20106;-81
2022/10/18 02:21:31;;;;;;;7.05;4.43;;;17.90;99.90;;;;;;5074593;28;20104;-81
2022/10/18 02:23:58;;;;;;;6.95;4.50;;;17.90;99.90;;;;;;5092417;28;20016;-81
2022/10/18 02:26:24;;;;;;;7.97;4.55;;;17.80;99.90;;;;;;5091852;28;20032;-81
2022/10/18 02:28:50;;;;;;;8.07;4.63;;;17.80;99.90;;;;;;5092553;28;20035;-81
2022/10/18 02:31:26;;;;;;;7.03;4.47;;;17.90;99.90;;;;;;5098865;28;20024;-81
2022/10/18 02:33:56;;;;;;;7.60;4.85;;;17.90;99.90;;;;;;5112302;28;20034;-81
2022/10/18 02:36:26;;;;;;;7.43;4.18;;;17.80;99.90;;;;;;5112601;28;20016;-81
2022/10/18 02:38:57;;;;;;;7.22;4.70;;;17.80;99.90;;;;;;5112554;28;20034;-81
2022/10/18 02:41:26;;;;;;;7.32;4.78;;;17.80;99.90;;;;;;5112122;28;20034;-81
2022/10/18 02:43:51;;;;;;;8.40;4.70;;;17.70;99.90;;;;;;5112540;28;20674;-81
2022/10/18 02:46:18;;;;;;;6.10;4.60;;;17.70;99.90;;;;;;5112810;28;20099;-80
2022/10/18 02:48:43;;;;;;;6.78;5.00;;;17.60;99.90;;;;;;5112487;28;20110;-81
2022/10/18 02:51:09;;;;;;;9.07;5.05;;;17.40;99.90;;;;;;5112276;28;20103;-80
2022/10/18 02:53:35;;;;;;;7.00;5.03;;;17.50;99.90;;;;;;5112242;28;20044;-81
2022/10/18 02:56:02;;;;;;;5.53;4.50;;;17.60;99.90;;;;;;5112640;28;20026;-81
2022/10/18 02:58:28;;;;;;;7.43;4.45;;;17.60;99.90;;;;;;5112373;28;20023;-80
2022/10/18 03:00:53;;;;;;;7.13;5.10;;;17.70;99.90;;;;;;5112053;28;20475;-81
2022/10/18 03:03:19;;;;;;;6.88;4.68;;;17.80;99.90;;;;;;5104137;28;20107;-81
2022/10/18 03:05:48;;;;;;;6.30;4.30;;;17.80;99.90;;;;;;5092061;28;20035;-81
2022/10/18 03:08:14;;;;;;;6.25;4.95;;;17.70;99.90;;;;;;5091596;28;20020;-81
2022/10/18 03:10:43;;;;;;;8.90;5.00;;;17.60;99.90;;;;;;5091769;28;20392;-81
2022/10/18 03:13:08;;;;;;;6.90;4.95;;;17.30;99.90;;;;;;5091877;28;20066;-81
2022/10/18 03:15:34;;;;;;;11.90;5.60;;;17.20;99.90;;;;;;5092115;28;20465;-80
2022/10/18 03:17:59;;;;;;;7.50;4.90;;;17.20;99.90;;;;;;5091862;28;20036;-80
2022/10/18 03:20:25;;;;;;;8.13;5.78;;;17.30;99.90;;;;;;5091805;28;20032;-81
2022/10/18 03:22:50;;;;;;;6.40;5.15;;;17.20;99.90;;;;;;5091548;28;20024;-80
2022/10/18 03:25:16;;;;;;;7.65;5.45;;;17.20;99.90;;;;;;5091829;28;20024;-81
2022/10/18 03:27:42;;;;;;;9.15;5.38;;;17.00;99.90;;;;;;5092093;28;20503;-81
2022/10/18 03:30:10;;;;;;;9.43;5.82;;;17.10;99.90;;;;;;5091660;28;20027;-81
2022/10/18 03:32:36;;;;;;;10.70;5.70;;;17.10;99.90;;;;;;5109046;28;20506;-80
2022/10/18 03:35:03;;;;;;;8.57;5.10;;;17.10;99.90;;;;;;5093796;28;20028;-81
2022/10/18 03:37:28;;;;;;;11.02;5.32;;;17.00;99.90;;;;;;5111557;28;20027;-80
2022/10/18 03:39:54;;;;;;;7.30;5.40;;;17.00;99.90;;;;;;5112269;28;20595;-80
2022/10/18 03:42:20;;;;;;;9.55;5.47;;;17.00;99.90;;;;;;5111827;28;20023;-81
2022/10/18 03:44:45;;;;;;;12.45;5.97;;;16.90;99.90;;;;;;5112871;28;20035;-81
2022/10/18 03:47:11;;;;;;;8.75;5.28;;;17.00;99.90;;;;;;5115668;28;20084;-81
2022/10/18 03:49:37;;;;;;;6.72;5.18;;;16.90;99.90;;;;;;5115523;28;20160;-81
2022/10/18 03:52:02;;;;;;;8.25;5.80;;;16.80;99.90;;;;;;5115139;28;20119;-81
2022/10/18 03:54:28;;;;;;;7.18;5.20;;;16.70;99.90;;;;;;5115486;28;20430;-81
2022/10/18 03:56:54;;;;;;;10.18;5.70;;;16.80;99.90;;;;;;5116017;28;20051;-81
2022/10/18 03:59:20;;;;;;;7.70;5.40;;;16.80;99.90;;;;;;5115434;28;20023;-81
2022/10/18 04:01:45;;;;;;;10.73;5.50;;;16.90;99.90;;;;;;5115184;28;20080;-81
2022/10/18 04:04:11;;;;;;;7.70;5.47;;;16.90;99.90;;;;;;5099607;28;20032;-81
2022/10/18 04:06:37;;;;;;;8.52;5.70;;;16.90;99.90;;;;;;5094484;28;20059;-80
2022/10/18 04:09:02;;;;;;;8.30;5.60;;;16.90;99.90;;;;;;5076923;28;20294;-81
2022/10/18 04:11:28;;;;;;;6.25;5.25;;;17.00;99.90;;;;;;5095000;28;20450;-81
2022/10/18 04:13:54;;;;;;;9.57;5.60;;;17.00;99.90;;;;;;5094443;28;20095;-80
2022/10/18 04:16:19;;;;;;;9.95;5.43;;;17.00;99.90;;;;;;5094605;28;20028;-81
2022/10/18 04:18:45;;;;;;;7.65;5.15;;;17.00;99.90;;;;;;5094440;28;20028;-81
2022/10/18 04:21:10;;;;;;;6.90;5.45;;;17.00;99.90;;;;;;5094472;28;20110;-80
2022/10/18 04:23:36;;;;;;;8.57;5.47;;;16.90;99.90;;;;;;5094439;28;20388;-81
2022/10/18 04:26:01;;;;;;;7.97;5.18;;;17.00;99.90;;;;;;5094544;28;20553;-81
2022/10/18 04:28:27;;;;;;;10.27;6.03;;;16.90;99.90;;;;;;5094319;28;20035;-81
2022/10/18 04:30:53;;;;;;;6.57;5.20;;;16.80;99.90;;;;;;5097780;28;20020;-81
2022/10/18 04:33:19;;;;;;;7.40;5.85;;;16.80;99.90;;;;;;5115028;28;20056;-80
2022/10/18 04:35:45;;;;;;;8.02;5.70;;;16.80;99.90;;;;;;5114514;28;20531;-81
2022/10/18 04:38:13;;;;;;;11.50;6.15;;;16.90;99.90;;;;;;5114671;28;20031;-81
2022/10/18 04:40:39;;;;;;;8.18;5.50;;;16.80;99.90;;;;;;5114827;28;20112;-81
2022/10/18 04:43:04;;;;;;;8.80;5.95;;;16.80;99.90;;;;;;5114549;28;20051;-81
2022/10/18 04:45:30;;;;;;;7.32;5.85;;;16.80;99.90;;;;;;5114527;28;20019;-81
2022/10/18 04:47:55;;;;;;;7.43;5.70;;;16.80;99.90;;;;;;5114523;28;20031;-81
2022/10/18 04:50:21;;;;;;;9.93;6.03;;;16.80;99.90;;;;;;5113913;28;20103;-80
2022/10/18 04:52:46;;;;;;;7.95;5.65;;;16.80;99.90;;;;;;5114725;28;20039;-81
2022/10/18 04:55:12;;;;;;;8.23;6.35;;;16.80;99.90;;;;;;5114197;28;20031;-81
2022/10/18 04:57:38;;;;;;;6.55;5.90;;;16.70;99.90;;;;;;5114098;28;20057;-81
2022/10/18 05:00:04;;;;;;;8.77;6.65;;;16.70;99.90;;;;;;5114298;28;20030;-81
2022/10/18 05:02:30;;;;;;;10.48;6.22;;;16.80;99.90;;;;;;5113034;28;20027;-81
2022/10/18 05:04:55;;;;;;;7.78;6.68;;;16.70;99.90;;;;;;5093427;28;20035;-81
2022/10/18 05:07:21;;;;;;;8.40;6.40;;;16.60;99.90;;;;;;5093729;28;20028;-81
2022/10/18 05:09:47;;;;;;;9.43;6.82;;;16.70;99.90;;;;;;5093429;28;20108;-81
2022/10/18 05:12:12;;;;;;;10.23;6.60;;;16.70;99.90;;;;;;5075091;28;20052;-81
2022/10/18 05:14:38;;;;;;;7.15;6.32;;;16.70;99.90;;;;;;5093856;28;20063;-81
2022/10/18 05:17:03;;;;;;;9.13;6.35;;;16.70;99.90;;;;;;5093385;28;20024;-80
2022/10/18 05:19:29;;;;;;;9.38;6.47;;;16.90;99.90;;;;;;5092953;28;20020;-80
2022/10/18 05:21:54;;;;;;;9.70;6.93;;;16.90;99.90;;;;;;5093213;28;20040;-81
2022/10/18 05:24:20;;;;;;;12.02;6.60;;;16.70;99.90;;;;;;5093284;28;20054;-80
2022/10/18 05:26:46;;;;;;;9.18;6.93;;;16.70;99.90;;;;;;5093135;28;20370;-81
2022/10/18 05:29:11;;;;;;;9.38;6.40;;;16.60;99.90;;;;;;5093541;28;20465;-81
2022/10/18 05:31:37;;;;;;;10.98;6.68;;;16.50;99.90;;;;;;5102279;28;20024;-80
2022/10/18 05:34:03;;;;;;;12.13;7.50;;;16.80;99.90;;;;;;5113042;28;20035;-81
2022/10/18 05:36:28;;;;;;;11.70;7.30;;;16.60;99.90;;;;;;5095242;28;20468;-81
2022/10/18 05:38:55;;;;;;;10.85;6.97;;;16.50;99.90;;;;;;5095519;28;20024;-81
2022/10/18 05:41:21;;;;;;;10.63;7.20;;;16.40;99.90;;;;;;5113164;28;20078;-81
2022/10/18 05:43:46;;;;;;;10.68;7.30;;;16.50;99.90;;;;;;5113189;28;20495;-81
2022/10/18 05:46:12;;;;;;;11.70;6.85;;;16.40;99.90;;;;;;5113412;28;20464;-81
2022/10/18 05:48:38;;;;;;;10.20;7.00;;;16.40;99.90;;;;;;5113091;28;20030;-81
2022/10/18 05:51:04;;;;;;;10.75;7.15;;;16.30;99.90;;;;;;5094768;28;20051;-80
2022/10/18 05:53:30;;;;;;;8.30;7.18;;;16.30;99.90;;;;;;5112830;28;20040;-81
2022/10/18 05:56:02;;;;;;;9.70;6.93;;;16.60;99.90;;;;;;5112922;28;20023;-80
2022/10/18 05:58:28;;;;;;;9.73;6.57;;;16.10;99.90;;;;;;5113430;28;20034;-81
2022/10/18 06:00:53;;;;;;;11.45;7.50;;;16.50;99.90;;;;;;5112862;28;20024;-81
2022/10/18 06:03:19;;;;;;;9.35;7.20;;;16.30;99.90;;;;;;5104249;28;20031;-80
2022/10/18 06:05:44;;;;;;;8.65;7.10;;;16.30;99.90;;;;;;5092521;28;20028;-80
2022/10/18 06:08:10;;;;;;;9.50;6.55;;;16.40;99.90;;;;;;5108762;28;20024;-81
2022/10/18 06:10:39;;;;;;;8.43;6.53;;;16.40;99.90;;;;;;5112468;28;20550;-80
2022/10/18 06:13:04;;;;;;;10.98;6.80;;;16.50;99.90;;;;;;5112987;28;20063;-81
2022/10/18 06:15:30;;;;;;;12.20;6.90;;;16.50;99.90;;;;;;5112279;28;20447;-80
2022/10/18 06:17:57;;;;;;;8.02;6.70;;;16.50;99.90;;;;;;5112332;28;20034;-82
2022/10/18 06:20:23;;;;;;;10.00;7.32;;;16.70;99.90;;;;;;5112612;28;20061;-82
2022/10/18 06:22:52;;;;;;;8.77;6.97;;;16.80;99.90;;;;;;5113063;28;20461;-81
2022/10/18 06:25:18;;;;;;;13.82;7.55;;;16.90;99.90;;;;;;5112443;28;20027;-82
2022/10/18 06:27:43;;;;;;;8.18;6.85;;;16.90;99.90;;;;;;5112486;28;20028;-82
2022/10/18 06:30:09;;;;;;;11.52;7.15;;;16.90;99.90;;;;;;5112814;28;20098;-82
2022/10/18 06:32:35;;;;;;;10.50;6.88;;;17.00;99.90;;;;;;5112053;28;20118;-82
2022/10/18 06:35:00;;;;;;;9.10;6.78;;;16.90;99.90;;;;;;5112574;28;20028;-81
2022/10/18 06:37:29;;;;;;;7.95;6.82;;;16.90;99.90;;;;;;5112497;28;20027;-81
2022/10/18 06:39:54;;;;;;;8.10;6.70;;;17.00;99.90;;;;;;5112269;28;20103;-82
2022/10/18 06:42:20;;;;;;;9.50;6.80;;;17.00;99.90;;;;;;5112956;28;20428;-82
2022/10/18 06:44:46;;;;;;;8.48;6.82;;;17.10;99.90;;;;;;5112538;28;20034;-82
2022/10/18 06:47:12;;;;;;;9.20;6.38;;;17.20;99.90;;;;;;5112559;28;20054;-82
2022/10/18 06:49:37;;;;;;;8.50;6.88;;;17.20;99.90;;;;;;5112358;28;20067;-81
2022/10/18 06:52:04;;;;;;;8.52;6.32;;;17.30;99.90;;;;;;5112600;28;20024;-82
2022/10/18 06:54:30;;;;;;;8.85;6.55;;;17.30;99.90;;;;;;5112266;28;20031;-82
2022/10/18 06:56:56;;;;;;;12.73;6.88;;;17.40;99.90;;;;;;5112397;28;20330;-81
2022/10/18 06:59:22;;;;;;;10.18;7.05;;;17.50;99.90;;;;;;5112465;28;20051;-82
2022/10/18 07:01:48;;;;;;;10.95;7.65;;;17.40;99.90;;;;;;5112343;28;20415;-82
2022/10/18 07:04:13;;;;;;;12.48;7.38;;;17.40;99.90;;;;;;5096200;28;20472;-82
2022/10/18 07:06:39;;;;;;;9.43;7.03;;;17.20;99.90;;;;;;5091987;28;20016;-82
2022/10/18 07:09:05;;;;;;;10.35;9.23;;;17.50;99.90;;;;;;5091785;28;20070;-82
2022/10/18 07:11:30;;;;;;;13.32;7.68;;;17.40;99.90;;;;;;5091703;28;20093;-82
2022/10/18 07:14:02;;;;;;;8.45;7.05;;;17.50;99.90;;;;;;5091758;28;20504;-82
2022/10/18 07:16:28;;;;;;;9.15;7.00;;;17.80;99.90;;;;;;5091398;28;20480;-81
2022/10/18 07:18:53;;;;;;;10.32;6.63;;;17.80;99.90;;;;;;5092185;28;20028;-81
2022/10/18 07:21:24;;;;;;;7.88;6.65;;;17.70;99.90;;;;;;5095375;28;20043;-82
2022/10/18 07:23:51;;;;;;;10.07;6.57;;;17.80;99.90;;;;;;5095634;28;20404;-81
2022/10/18 07:26:26;;;;;;;8.10;6.38;;;17.90;99.90;;;;;;5096011;28;20043;-82
2022/10/18 07:29:09;;;;;;;10.00;6.45;;;17.70;99.90;;;;;;5095919;28;20093;-81
2022/10/18 07:31:37;;;;;;;10.65;6.85;;;18.00;99.90;;;;;;5104392;28;20055;-81
2022/10/18 07:34:04;;;;;;;9.90;6.50;;;18.00;99.90;;;;;;5115838;28;20458;-81
2022/10/18 07:36:30;;;;;;;10.00;6.05;;;18.40;99.90;;;;;;5115601;28;20020;-82
2022/10/18 07:38:55;;;;;;;12.77;6.72;;;19.10;99.90;;;;;;5116144;28;20031;-82
2022/10/18 07:41:22;;;;;;;9.32;6.25;;;19.90;99.90;;;;;;5115639;28;20027;-82
2022/10/18 07:43:52;;;;;;;10.32;6.68;;;19.90;99.90;;;;;;5115992;28;20023;-82
2022/10/18 07:46:19;;;;;;;7.65;6.47;;;20.90;99.90;;;;;;5115628;28;20391;-82
2022/10/18 07:48:45;;;;;;;12.63;7.00;;;21.90;99.90;;;;;;5116107;28;20028;-82
2022/10/18 07:51:11;;;;;;;9.30;5.82;;;23.60;99.90;;;;;;5115365;28;20023;-82
2022/10/18 07:53:37;;;;;;;6.38;5.60;;;25.90;99.90;;;;;;5115319;28;20044;-82
2022/10/18 07:56:14;;;;;;;13.15;6.03;;;26.80;99.90;;;;;;5115978;28;20157;-82
2022/10/18 07:58:44;;;;;;;7.80;5.38;;;28.20;99.90;;;;;;5115146;28;20020;-83
2022/10/18 08:01:11;;;;;;;6.90;5.30;;;28.80;99.90;;;;;;5115534;28;20019;-82
2022/10/18 08:03:37;;;;;;;6.88;5.57;;;29.70;99.90;;;;;;5104438;28;20036;-82
2022/10/18 08:06:05;;;;;;;9.23;5.72;;;29.00;99.90;;;;;;5094954;28;20099;-83
2022/10/18 08:08:31;;;;;;;7.03;5.43;;;30.40;99.90;;;;;;5094699;28;20496;-82
2022/10/18 08:11:08;;;;;;;9.15;5.50;;;30.70;99.90;;;;;;5094973;28;20127;-82
2022/10/18 08:13:33;;;;;;;6.88;5.18;;;31.30;99.90;;;;;;5094732;28;20032;-82
2022/10/18 08:16:01;;;;;;;5.82;4.65;;;30.40;99.90;;;;;;5094671;28;20107;-82
2022/10/18 08:18:27;;;;;;;7.88;5.30;;;30.80;99.90;;;;;;5094694;28;20032;-82
2022/10/18 08:20:52;;;;;;;6.55;5.00;;;30.50;99.90;;;;;;5094454;28;20422;-83
2022/10/18 08:23:18;;;;;;;7.65;4.72;;;31.20;99.90;;;;;;5076718;28;20032;-82
2022/10/18 08:25:43;;;;;;;5.35;4.72;;;33.30;99.90;;;;;;5094586;28;20387;-83
2022/10/18 08:28:09;;;;;;;5.88;4.43;;;33.80;99.90;;;;;;5093972;28;20020;-83
2022/10/18 08:30:35;;;;;;;6.63;4.70;;;33.50;99.90;;;;;;5094266;28;20076;-83
2022/10/18 08:33:01;;;;;;;6.18;4.80;;;32.60;99.90;;;;;;5114496;28;20043;-83
2022/10/18 08:35:27;;;;;;;6.50;4.55;;;33.80;99.90;;;;;;5114696;28;20048;-83
2022/10/18 08:37:53;;;;;;;7.70;4.70;;;31.40;99.90;;;;;;5115006;28;20090;-82
2022/10/18 08:40:19;;;;;;;8.57;4.40;;;32.20;99.90;;;;;;5114337;28;20050;-83
2022/10/18 08:43:07;;;;;;;5.47;4.40;;;33.90;99.90;;;;;;5114331;28;20064;-83
2022/10/18 08:45:37;;;;;;;5.30;4.50;;;32.80;99.90;;;;;;5114567;28;20110;-82
2022/10/18 08:48:05;;;;;;;6.28;4.43;;;34.60;99.90;;;;;;5115012;28;20049;-83
2022/10/18 08:50:35;;;;;;;6.32;3.97;;;35.50;99.90;;;;;;5114424;28;20016;-83
2022/10/18 08:53:15;;;;;;;4.90;4.13;;;35.50;99.90;;;;;;5114260;28;20039;-83
2022/10/18 08:55:45;;;;;;;5.50;4.00;;;35.60;99.90;;;;;;5114269;28;20027;-82
2022/10/18 08:58:23;;;;;;;4.72;4.05;;;35.20;99.90;;;;;;5114307;28;20503;-83
2022/10/18 09:01:06;;;;;;;7.88;4.00;;;35.90;99.90;;;;;;5114165;28;20022;-83
2022/10/18 09:03:53;;;;;;;7.70;3.80;;;36.40;99.90;;;;;;5103817;28;20115;-83
2022/10/18 09:06:31;;;;;;;6.40;4.00;;;38.70;99.90;;;;;;5093648;28;20063;-83
2022/10/18 09:09:05;;;;;;;8.07;4.68;;;39.40;99.90;;;;;;5093486;28;20051;-83
2022/10/18 09:11:46;;;;;;;4.90;3.72;;;36.90;99.90;;;;;;5092981;28;20052;-83
2022/10/18 09:14:23;;;;;;;3.47;3.15;;;39.00;99.90;;;;;;5093536;28;20040;-83
2022/10/18 09:16:59;;;;;;;3.63;3.30;;;36.20;99.90;;;;;;5093529;28;20095;-83
2022/10/18 09:19:31;;;;;;;4.10;3.08;;;37.00;99.90;;;;;;5093391;28;20048;-83
2022/10/18 09:22:17;;;;;;;3.50;3.20;;;36.10;99.90;;;;;;5093778;28;20020;-83
2022/10/18 09:25:08;;;;;;;3.67;3.00;;;37.40;99.90;;;;;;5093439;28;20055;-83
2022/10/18 09:27:49;;;;;;;4.38;2.90;;;37.60;99.90;;;;;;5093257;28;20048;-83
2022/10/18 09:30:24;;;;;;;3.88;2.92;;;36.30;99.90;;;;;;5093179;28;20036;-83
2022/10/18 09:33:01;;;;;;;3.95;3.33;;;36.60;99.90;;;;;;5112357;28;20032;-83
2022/10/18 09:35:32;;;;;;;4.38;3.20;;;37.70;99.90;;;;;;5113443;28;20103;-83
2022/10/18 09:38:10;;;;;;;3.97;3.10;;;38.40;99.90;;;;;;5113927;28;20023;-82
2022/10/18 09:40:45;;;;;;;4.38;3.22;;;37.90;99.90;;;;;;5112961;28;20031;-83
2022/10/18 09:43:18;;;;;;;3.33;3.00;;;38.30;99.90;;;;;;5112596;28;20450;-83
2022/10/18 09:45:45;;;;;;;3.15;2.83;;;37.90;99.90;;;;;;5113266;28;20024;-82
2022/10/18 09:48:27;;;;;;;3.75;2.90;;;36.50;99.90;;;;;;5113149;28;20071;-83
2022/10/18 09:51:10;;;;;;;4.00;3.33;;;35.10;99.90;;;;;;5113251;28;20062;-83
2022/10/18 09:54:02;;;;;;;3.20;2.97;;;36.60;99.90;;;;;;5113425;28;20391;-83
2022/10/18 09:56:33;;;;;;;3.28;2.60;;;36.60;99.90;;;;;;5112705;28;20475;-83
2022/10/18 09:58:59;;;;;;;5.63;3.15;;;38.60;99.90;;;;;;5095209;28;20032;-83
2022/10/18 10:01:27;;;;;;;3.20;2.85;;;37.60;99.90;;;;;;5112909;28;20102;-83
2022/10/18 10:03:53;;;;;;;2.85;2.65;;;36.80;99.90;;;;;;5099935;28;20063;-83
2022/10/18 10:06:27;;;;;;;3.33;2.70;;;37.00;99.90;;;;;;5092630;28;20472;-83
2022/10/18 10:09:07;;;;;;;3.03;2.75;;;37.40;99.90;;;;;;5092309;28;20028;-83
2022/10/18 10:11:39;;;;;;;3.13;2.45;;;37.60;99.90;;;;;;5074328;28;20455;-83
2022/10/18 10:14:23;;;;;;;2.90;2.50;;;36.30;99.90;;;;;;5092764;28;20047;-83
2022/10/18 10:16:56;;;;;;;2.88;2.35;;;37.10;99.90;;;;;;5092677;28;20015;-83
2022/10/18 10:19:34;;;;;;;4.00;2.70;;;36.70;99.90;;;;;;5092367;28;20024;-83
2022/10/18 10:22:05;;;;;;;4.18;3.00;;;37.90;99.90;;;;;;5092564;28;20020;-82
2022/10/18 10:24:40;;;;;;;3.42;2.70;;;38.90;99.90;;;;;;5073819;28;20081;-83
2022/10/18 10:27:33;;;;;;;3.92;2.72;;;39.10;99.90;;;;;;5092375;28;20081;-83
2022/10/18 10:30:01;;;;;;;3.20;2.53;;;39.80;99.90;;;;;;5077975;28;20503;-83
2022/10/18 10:32:30;;;;;;;3.42;2.58;;;37.90;99.90;;;;;;5108083;28;20475;-83
2022/10/18 10:34:56;;;;;;;6.80;3.15;;;37.30;99.90;;;;;;5113042;28;20471;-83
2022/10/18 10:37:22;;;;;;;3.20;2.60;;;40.80;99.90;;;;;;5112702;28;20028;-83
2022/10/18 10:40:13;;;;;;;3.67;3.00;;;41.70;99.90;;;;;;5111970;28;20080;-83
2022/10/18 10:43:03;;;;;;;6.43;2.90;;;42.60;99.90;;;;;;5112412;28;20028;-83
2022/10/18 10:45:39;;;;;;;3.58;3.20;;;42.60;99.90;;;;;;5112941;28;20506;-83
2022/10/18 10:48:17;;;;;;;4.68;2.85;;;40.00;99.90;;;;;;5112875;28;20026;-83
2022/10/18 10:51:07;;;;;;;3.85;2.58;;;42.00;99.90;;;;;;5112514;28;20024;-83
2022/10/18 10:53:57;;;;;;;3.45;2.70;;;41.20;99.90;;;;;;5112837;28;20027;-83
2022/10/18 10:56:29;;;;;;;4.85;2.90;;;41.20;99.90;;;;;;5116614;28;20085;-83
2022/10/18 10:59:16;;;;;;;3.58;2.70;;;41.90;99.90;;;;;;5116919;28;20019;-83
2022/10/18 11:01:42;;;;;;;3.47;2.60;;;40.90;99.90;;;;;;5097589;28;20408;-83
2022/10/18 11:04:30;;;;;;;4.03;2.88;;;40.70;99.90;;;;;;5101196;28;20032;-83
2022/10/18 11:07:02;;;;;;;2.97;2.70;;;39.20;99.90;;;;;;5095667;28;20119;-83
2022/10/18 11:09:49;;;;;;;2.95;2.65;;;38.90;99.90;;;;;;5095962;28;20035;-83
2022/10/18 11:13:00;;;;;;;2.95;2.65;;;39.20;99.90;;;;;;5095668;28;20052;-83
2022/10/18 11:15:31;;;;;;;6.20;2.90;;;39.40;99.90;;;;;;5093889;28;20051;-83
2022/10/18 11:18:20;;;;;;;3.10;2.80;;;38.00;99.90;;;;;;5096172;28;20020;-83
2022/10/18 11:21:00;;;;;;;3.47;3.17;;;38.60;99.90;;;;;;5095806;28;20111;-83
2022/10/18 11:23:36;;;;;;;5.32;3.05;;;38.30;99.90;;;;;;5095903;28;20028;-83
2022/10/18 11:26:11;;;;;;;4.45;2.85;;;37.90;99.90;;;;;;5095672;28;20036;-83
2022/10/18 11:29:00;;;;;;;3.17;2.88;;;38.40;99.90;;;;;;5095404;28;20024;-82
2022/10/18 11:31:47;;;;;;;3.60;3.00;;;40.20;99.90;;;;;;5103028;28;20024;-83
2022/10/18 11:34:31;;;;;;;3.30;2.88;;;38.70;99.90;;;;;;5115864;28;20028;-83
2022/10/18 11:37:08;;;;;;;3.97;2.90;;;40.20;99.90;;;;;;5115521;28;20034;-82
2022/10/18 11:39:53;;;;;;;4.13;3.00;;;41.00;99.90;;;;;;5115835;28;20023;-83
2022/10/18 11:42:27;;;;;;;4.07;3.10;;;43.00;99.90;;;;;;5115973;28;20027;-83
2022/10/18 11:45:04;;;;;;;3.42;3.10;;;42.00;99.90;;;;;;5115911;28;20039;-83
2022/10/18 11:47:53;;;;;;;3.58;3.10;;;41.20;99.90;;;;;;5097361;28;20107;-81
2022/10/18 11:50:31;;;;;;;3.25;2.85;;;40.60;99.90;;;;;;5115197;28;20016;-81
2022/10/18 11:53:41;;;;;;;3.90;2.83;;;40.50;99.90;;;;;;5116221;28;20036;-81
2022/10/18 11:56:07;;;;;;;3.40;2.70;;;42.00;99.90;;;;;;5012895;28;20037;-81
2022/10/18 11:58:48;;;;;;;2.95;2.40;;;41.00;99.90;;;;;;5012853;28;20040;-81
2022/10/18 12:01:19;;;;;;;3.97;2.58;;;40.80;99.90;;;;;;5012738;28;20037;-82
2022/10/18 12:04:10;;;;;;;3.60;2.60;;;41.40;99.90;;;;;;5001426;28;20039;-81
2022/10/18 12:06:39;;;;;;;2.65;2.30;;;41.30;99.90;;;;;;4991965;28;20041;-80
2022/10/18 12:09:29;;;;;;;2.80;2.50;;;39.80;99.90;;;;;;4993523;28;20596;-81
2022/10/18 12:12:00;;;;;;;3.42;2.60;;;39.30;99.90;;;;;;4976371;28;20058;-81
2022/10/18 12:14:31;;;;;;;2.80;2.60;;;40.80;99.90;;;;;;4993907;28;20104;-81
2022/10/18 12:17:03;;;;;;;3.53;2.60;;;40.30;99.90;;;;;;4992632;28;20584;-81
2022/10/18 12:19:31;;;;;;;3.10;2.80;;;42.40;99.90;;;;;;4992963;28;20038;-81
2022/10/18 12:22:11;;;;;;;3.65;2.70;;;41.80;99.90;;;;;;4992717;28;20027;-81
2022/10/18 12:24:37;;;;;;;3.40;2.60;;;43.30;99.90;;;;;;4992901;28;20120;-81
2022/10/18 12:27:03;;;;;;;3.53;2.50;;;37.90;99.90;;;;;;4992684;28;20094;-81
2022/10/18 12:29:45;;;;;;;3.45;2.78;;;39.30;99.90;;;;;;4992667;28;20034;-81
2022/10/18 12:32:15;;;;;;;4.20;2.45;;;38.90;99.90;;;;;;5025896;28;20035;-81
2022/10/18 12:34:53;;;;;;;4.13;2.60;;;37.40;99.90;;;;;;5114318;28;20026;-81
2022/10/18 12:37:56;;;;;;;3.03;2.72;;;39.10;99.90;;;;;;5114966;28;20026;-81
2022/10/18 12:40:34;;;;;;;4.68;2.65;;;40.90;99.90;;;;;;5114391;28;20023;-81
2022/10/18 12:43:07;;;;;;;2.92;2.50;;;42.30;99.90;;;;;;5114562;28;20035;-81
2022/10/18 12:45:45;;;;;;;2.83;2.60;;;41.50;99.90;;;;;;5114836;28;20028;-81
2022/10/18 12:48:30;;;;;;;3.15;2.85;;;40.10;99.90;;;;;;5113955;28;20061;-81
2022/10/18 12:50:59;;;;;;;3.58;2.47;;;39.90;99.90;;;;;;5114465;28;20421;-80
2022/10/18 12:53:27;;;;;;;3.17;2.40;;;39.80;99.90;;;;;;5114186;28;20038;-81
2022/10/18 12:55:54;;;;;;;2.70;2.50;;;38.20;99.90;;;;;;5114122;28;20092;-82
2022/10/18 12:58:21;;;;;;;5.05;2.67;;;38.30;99.90;;;;;;5114574;28;20035;-81
2022/10/18 13:00:46;;;;;;;2.88;2.47;;;37.40;99.90;;;;;;5114311;28;20062;-81
2022/10/18 13:03:16;;;;;;;3.35;2.45;;;37.90;99.90;;;;;;5113673;28;20058;-81
2022/10/18 13:05:48;;;;;;;3.33;2.60;;;37.90;99.90;;;;;;5113886;28;20035;-81